Terminal Aerodrome Forecast
Issued by NWS Bismarck, ND

Home | Current Version | Previous Version | Text Only | Print | Product List | Glossary Off
Versions: 1 2 3 4 5 6 7 8 9 10 11 12 13 14 15 16 17

000
FTUS43 KBIS 240533
TAFBIS
TAF
KBIS 240533Z 2406/2506 02010KT 5SM SHRA BR SCT007 SCT015 OVC020
      TEMPO 2406/2410 BKN007 OVC015
     FM241000 01010KT 3SM SHRA BR OVC008
     FM241200 35011KT 5SM -SHRA BR OVC008
     FM241600 36012KT 5SM BR VCSH OVC008
     FM242000 35013KT P6SM VCSH OVC010
     FM250000 35009KT P6SM OVC010=

USA.gov is the U.S. government's official web portal to all federal, state and local government web resources and services.